Time;durP1;ratioP1;P1;durP2;ratioP2;P2;SDS_P1;SDS_P2;PMS_P1;PMS_P2;Temp;Humidity;BMP_temperature;BMP_pressure;BME280_temperature;BME280_humidity;BME280_pressure;Samples;Min_cycle;Max_cycle;Signal;HPM_P1;HPM_P2
2022/06/10 00:03:05;;;;;;;10.30;5.00;;;;;;;19.78;65.06;98815.89;233419;1217;139017;-61
2022/06/10 00:08:12;;;;;;;7.80;5.40;;;;;;;19.71;64.93;98818.41;233589;1217;138827;-61
2022/06/10 00:13:18;;;;;;;7.60;5.70;;;;;;;19.64;64.99;98820.18;233724;1217;139415;-62
2022/06/10 00:18:24;;;;;;;10.10;5.70;;;;;;;19.65;65.10;98829.70;233574;1217;138469;-61
2022/06/10 00:23:27;;;;;;;8.00;5.70;;;;;;;19.62;65.05;98818.77;233611;1217;140207;-62
2022/06/10 00:28:30;;;;;;;7.90;5.80;;;;;;;19.59;64.99;98818.48;233663;1217;139043;-61
2022/06/10 00:33:34;;;;;;;13.10;6.80;;;;;;;19.54;64.95;98822.10;233707;1216;138604;-62
2022/06/10 00:38:38;;;;;;;9.00;6.90;;;;;;;19.50;65.05;98817.45;233610;1217;139452;-61
2022/06/10 00:43:42;;;;;;;12.10;7.20;;;;;;;19.43;65.00;98815.98;233660;1216;139105;-61
2022/06/10 00:48:54;;;;;;;9.60;7.10;;;;;;;19.40;65.12;98830.74;233676;1216;139010;-61
2022/06/10 00:54:04;;;;;;;10.80;7.60;;;;;;;19.33;64.97;98833.59;233589;1217;140108;-61
2022/06/10 00:59:20;;;;;;;10.90;7.30;;;;;;;19.29;65.01;98853.05;233718;1217;139280;-61
2022/06/10 01:04:25;;;;;;;11.60;7.30;;;;;;;19.25;65.11;98853.61;233561;1217;139851;-60
2022/06/10 01:09:30;;;;;;;12.60;8.10;;;;;;;19.19;65.14;98850.52;233570;1216;139671;-61
2022/06/10 01:14:50;;;;;;;15.60;8.60;;;;;;;19.11;65.15;98843.84;233518;1217;139672;-61
2022/06/10 01:20:23;;;;;;;12.50;8.40;;;;;;;19.08;65.26;98842.38;233442;1217;139051;-61
2022/06/10 01:25:50;;;;;;;13.40;9.30;;;;;;;19.07;65.43;98849.33;233561;1216;139754;-61
2022/06/10 01:30:58;;;;;;;10.10;8.40;;;;;;;19.07;65.42;98843.39;233692;1217;139292;-61
2022/06/10 01:36:25;;;;;;;12.10;9.50;;;;;;;19.13;65.56;98835.20;233610;1217;139645;-61
2022/06/10 01:41:56;;;;;;;13.10;9.30;;;;;;;19.10;65.38;98834.66;233524;1217;139284;-61
2022/06/10 01:47:15;;;;;;;11.80;10.20;;;;;;;19.06;65.25;98836.27;233752;1217;138666;-61
2022/06/10 01:52:32;;;;;;;13.10;9.50;;;;;;;19.02;65.32;98838.02;233617;1217;139559;-61
2022/06/10 01:57:52;;;;;;;13.00;10.10;;;;;;;18.98;65.26;98843.48;233583;1217;140271;-61
2022/06/10 02:03:08;;;;;;;18.10;10.40;;;;;;;18.96;65.31;98855.30;233584;1216;139422;-61
2022/06/10 02:08:29;;;;;;;12.90;10.20;;;;;;;18.93;65.51;98859.79;233703;1216;139275;-61
2022/06/10 02:13:40;;;;;;;11.80;10.40;;;;;;;18.91;65.69;98858.81;233396;1217;139286;-61
2022/06/10 02:19:02;;;;;;;13.70;10.70;;;;;;;18.88;65.65;98865.59;233577;1217;138765;-61
2022/06/10 02:24:11;;;;;;;13.50;9.80;;;;;;;18.87;65.84;98868.24;233612;1217;138954;-61
2022/06/10 02:29:21;;;;;;;14.30;10.50;;;;;;;18.89;65.67;98869.14;233657;1217;139951;-60
2022/06/10 02:34:24;;;;;;;13.40;10.90;;;;;;;18.89;65.72;98875.27;233723;1217;139146;-62
2022/06/10 02:39:43;;;;;;;14.40;11.60;;;;;;;18.99;66.08;98881.27;233796;1215;139142;-61
2022/06/10 02:45:08;;;;;;;13.80;11.50;;;;;;;19.04;66.02;98882.43;233677;1217;140193;-62
2022/06/10 02:50:13;;;;;;;15.70;11.60;;;;;;;19.03;66.06;98886.61;233454;1217;140295;-60
2022/06/10 02:55:21;;;;;;;15.20;11.90;;;;;;;19.03;66.16;98891.06;233712;1217;138976;-60
2022/06/10 03:06:22;;;;;;;18.20;12.00;;;;;;;19.16;66.26;98908.67;233688;1217;139477;-60
2022/06/10 03:12:01;;;;;;;15.90;12.00;;;;;;;19.23;66.25;98920.27;233809;1215;139268;-60
2022/06/10 03:17:16;;;;;;;15.00;11.70;;;;;;;19.23;66.24;98918.80;233779;1216;139034;-60
2022/06/10 03:22:39;;;;;;;15.70;11.80;;;;;;;19.22;66.07;98932.90;233879;1217;138909;-60
2022/06/10 03:28:05;;;;;;;12.30;10.40;;;;;;;19.18;66.11;98934.08;233605;1217;140032;-60
2022/06/10 03:33:28;;;;;;;12.90;10.90;;;;;;;19.18;66.22;98938.77;233730;1217;139737;-60
2022/06/10 03:38:32;;;;;;;17.70;11.30;;;;;;;19.27;66.37;98951.20;233863;1215;139191;-60
2022/06/10 03:43:39;;;;;;;16.20;11.20;;;;;;;19.25;66.16;98953.85;233705;1217;139651;-60
2022/06/10 03:48:44;;;;;;;15.60;11.30;;;;;;;19.25;66.14;98961.06;233719;1217;142044;-62
2022/06/10 03:53:48;;;;;;;13.80;11.80;;;;;;;19.27;66.17;98964.64;233654;1216;139080;-62
2022/06/10 03:58:51;;;;;;;16.50;12.80;;;;;;;19.34;66.29;98966.95;233798;1216;139460;-61
2022/06/10 04:03:54;;;;;;;17.60;14.80;;;;;;;19.41;66.27;98970.08;233754;1216;138757;-63
2022/06/10 04:08:58;;;;;;;20.10;14.50;;;;;;;19.46;66.26;98982.02;233712;1216;139124;-64
2022/06/10 04:14:07;;;;;;;20.90;14.20;;;;;;;19.49;66.20;98986.86;233738;1217;138993;-64
2022/06/10 04:19:12;;;;;;;19.40;13.30;;;;;;;19.59;66.22;98986.80;233684;1216;139566;-64
2022/06/10 04:24:15;;;;;;;23.80;18.50;;;;;;;19.71;66.27;98990.27;233619;1217;139901;-58
2022/06/10 04:29:18;;;;;;;21.00;14.20;;;;;;;19.79;66.20;98997.57;233732;1217;139063;-57
2022/06/10 04:34:21;;;;;;;17.90;13.40;;;;;;;19.81;66.04;98988.40;233823;1217;138830;-59
2022/06/10 04:39:24;;;;;;;42.00;32.30;;;;;;;19.87;66.05;98992.69;233515;1217;141480;-59
2022/06/10 04:44:26;;;;;;;21.50;15.60;;;;;;;19.98;66.00;99007.34;233546;1216;140501;-60
2022/06/10 04:49:30;;;;;;;43.20;33.10;;;;;;;20.03;65.78;99015.64;233660;1216;139253;-60
2022/06/10 04:54:33;;;;;;;42.20;33.10;;;;;;;20.00;65.60;99018.84;233839;1216;138825;-61
2022/06/10 04:59:37;;;;;;;20.40;16.10;;;;;;;20.05;65.61;99028.40;233640;1217;139934;-61
2022/06/10 05:04:40;;;;;;;19.40;15.40;;;;;;;20.06;65.38;99037.20;233880;1216;139373;-61
2022/06/10 05:09:43;;;;;;;25.00;20.30;;;;;;;20.01;65.31;99035.02;233700;1216;139565;-61
2022/06/10 05:14:46;;;;;;;22.00;13.60;;;;;;;19.95;65.27;99041.34;233651;1216;140903;-63
2022/06/10 05:19:49;;;;;;;17.30;13.80;;;;;;;19.86;65.20;99055.61;233586;1216;139804;-62
2022/06/10 05:24:58;;;;;;;68.40;55.60;;;;;;;19.81;65.42;99060.92;233617;1216;139351;-61
2022/06/10 05:30:01;;;;;;;17.20;15.30;;;;;;;19.86;65.66;99062.23;233765;1216;139602;-61
2022/06/10 05:35:04;;;;;;;18.50;14.80;;;;;;;19.88;65.63;99067.65;233812;1217;139029;-61
2022/06/10 05:40:11;;;;;;;16.70;13.50;;;;;;;19.95;65.64;99074.13;233729;1217;139699;-59
2022/06/10 05:45:17;;;;;;;105.80;85.10;;;;;;;20.02;65.57;99082.04;233564;1216;139370;-60
2022/06/10 05:50:27;;;;;;;25.00;18.60;;;;;;;20.07;65.75;99085.49;233690;1215;139536;-59
2022/06/10 05:55:32;;;;;;;26.60;18.00;;;;;;;20.12;65.71;99086.98;233812;1216;139356;-60
2022/06/10 06:00:42;;;;;;;21.30;15.40;;;;;;;20.22;65.57;99099.94;233705;1216;138904;-59
2022/06/10 06:05:45;;;;;;;20.30;15.20;;;;;;;20.31;65.63;99098.38;233652;1217;139762;-59
2022/06/10 06:10:48;;;;;;;17.60;15.10;;;;;;;20.37;65.59;99093.82;233812;1217;140028;-60
2022/06/10 06:15:51;;;;;;;55.80;42.80;;;;;;;20.40;65.33;99100.77;233623;1217;139693;-58
2022/06/10 06:20:56;;;;;;;22.60;17.20;;;;;;;20.44;65.55;99096.96;233658;1216;138907;-60
2022/06/10 06:25:59;;;;;;;21.20;15.00;;;;;;;20.51;65.44;99107.33;233643;1216;138968;-60
2022/06/10 06:31:02;;;;;;;20.10;15.30;;;;;;;20.49;65.10;99112.96;233693;1216;139928;-61
2022/06/10 06:36:06;;;;;;;22.10;16.50;;;;;;;20.50;65.32;99124.04;233489;1217;140063;-59
2022/06/10 06:41:11;;;;;;;21.90;16.20;;;;;;;20.57;65.41;99128.39;233911;1216;138669;-60
2022/06/10 06:46:16;;;;;;;22.80;16.70;;;;;;;20.64;65.45;99134.94;233795;1216;139441;-63
2022/06/10 06:51:20;;;;;;;23.60;17.40;;;;;;;20.64;65.30;99135.31;233576;1216;138962;-59
2022/06/10 06:56:23;;;;;;;23.10;16.80;;;;;;;20.59;65.27;99138.89;233673;1217;140084;-59
2022/06/10 07:01:26;;;;;;;27.10;16.60;;;;;;;20.62;65.27;99144.17;233631;1216;139890;-57
2022/06/10 07:06:31;;;;;;;24.40;17.70;;;;;;;20.64;65.36;99146.44;233684;1216;139564;-62
2022/06/10 07:11:35;;;;;;;26.00;18.10;;;;;;;20.68;65.39;99145.99;233699;1216;138713;-59
2022/06/10 07:16:43;;;;;;;28.30;20.20;;;;;;;20.72;65.43;99153.55;232814;1216;138979;-59
2022/06/10 07:21:46;;;;;;;27.50;20.00;;;;;;;20.76;65.40;99149.94;232239;1216;139791;-58
2022/06/10 07:26:55;;;;;;;30.40;20.20;;;;;;;20.70;65.17;99153.63;232951;1217;140132;-57
2022/06/10 07:31:58;;;;;;;62.70;46.90;;;;;;;20.70;65.37;99158.83;233666;1216;139675;-59
2022/06/10 07:37:01;;;;;;;36.40;25.10;;;;;;;20.83;65.80;99162.59;233679;1216;139739;-60
2022/06/10 07:42:05;;;;;;;37.30;28.20;;;;;;;20.93;65.68;99161.36;233801;1216;139030;-58
2022/06/10 07:47:11;;;;;;;37.90;25.60;;;;;;;20.97;65.52;99167.39;233836;1217;138894;-58
2022/06/10 07:52:15;;;;;;;35.80;25.40;;;;;;;20.97;65.36;99167.34;233748;1215;140565;-58
2022/06/10 07:57:18;;;;;;;34.30;24.40;;;;;;;20.95;65.22;99169.05;233679;1216;141829;-58
2022/06/10 08:02:23;;;;;;;31.70;23.30;;;;;;;20.98;65.22;99177.39;233687;1217;139847;-57
2022/06/10 08:07:26;;;;;;;37.00;26.90;;;;;;;20.98;65.23;99179.20;233686;1217;139674;-57
2022/06/10 08:12:29;;;;;;;38.40;27.50;;;;;;;20.99;65.16;99177.25;233663;1217;139258;-59
2022/06/10 08:17:32;;;;;;;57.50;39.40;;;;;;;21.02;65.19;99188.33;233282;1217;139311;-61
2022/06/10 08:22:35;;;;;;;42.80;30.60;;;;;;;21.04;65.16;99183.83;233752;1217;139563;-59
2022/06/10 08:27:39;;;;;;;40.80;30.50;;;;;;;21.09;65.22;99192.38;233692;1217;139256;-60
2022/06/10 08:32:42;;;;;;;38.10;27.90;;;;;;;21.17;65.34;99192.55;233662;1217;140283;-60
2022/06/10 08:37:50;;;;;;;37.00;26.00;;;;;;;21.23;65.05;99198.52;233653;1217;139594;-60
2022/06/10 08:43:01;;;;;;;39.60;25.80;;;;;;;21.24;65.02;99205.55;233458;1215;138906;-59
2022/06/10 08:48:29;;;;;;;31.30;23.00;;;;;;;21.28;65.19;99212.05;233627;1217;139205;-60
2022/06/10 08:53:57;;;;;;;56.90;48.20;;;;;;;21.32;65.16;99209.30;233505;1217;139846;-60
2022/06/10 08:59:24;;;;;;;20.70;15.00;;;;;;;21.37;65.14;99212.02;233702;1216;140432;-60
2022/06/10 09:04:36;;;;;;;16.70;11.60;;;;;;;21.41;64.77;99216.46;233746;1217;140980;-59
2022/06/10 09:09:43;;;;;;;15.40;12.00;;;;;;;21.45;64.86;99221.95;233586;1215;139580;-59
2022/06/10 09:14:46;;;;;;;15.10;11.40;;;;;;;21.48;64.71;99230.65;233516;1217;139102;-59
2022/06/10 09:20:18;;;;;;;12.30;10.20;;;;;;;21.48;64.61;99239.54;233665;1217;139235;-59
2022/06/10 09:25:34;;;;;;;10.50;9.20;;;;;;;21.42;64.32;99237.17;233669;1217;139393;-59
2022/06/10 09:30:43;;;;;;;;;;;;;;;21.33;64.25;99240.95;233585;1217;139855;-59
2022/06/10 09:36:08;;;;;;;11.70;9.70;;;;;;;21.34;64.45;99249.00;233529;1215;126084;-60
2022/06/10 09:41:27;;;;;;;122.60;94.00;;;;;;;21.32;64.41;99248.65;233432;1217;139708;-62
2022/06/10 09:46:36;;;;;;;11.90;10.50;;;;;;;21.41;64.51;99259.47;233641;1215;139085;-61
2022/06/10 09:51:52;;;;;;;13.10;9.90;;;;;;;21.42;64.34;99262.73;233252;1217;139788;-60
2022/06/10 09:57:16;;;;;;;13.90;10.70;;;;;;;21.47;64.30;99262.42;233624;1216;140399;-60
2022/06/10 10:02:38;;;;;;;13.00;10.10;;;;;;;21.53;64.06;99268.55;233509;1217;139249;-61
2022/06/10 10:08:03;;;;;;;11.00;9.30;;;;;;;21.56;64.11;99262.38;233541;1217;139637;-60
2022/06/10 10:13:24;;;;;;;11.10;9.70;;;;;;;21.68;64.29;99260.95;233570;1217;139685;-61
2022/06/10 10:18:42;;;;;;;10.00;8.90;;;;;;;21.79;64.06;99260.56;233690;1217;139098;-61
2022/06/10 10:23:54;;;;;;;12.30;10.80;;;;;;;21.90;63.72;99269.62;233650;1217;139197;-60
2022/06/10 10:29:30;;;;;;;9.70;8.50;;;;;;;21.90;63.62;99268.15;233706;1217;138845;-61
2022/06/10 10:34:38;;;;;;;12.70;8.70;;;;;;;21.85;63.20;99264.91;233551;1217;138469;-61
2022/06/10 10:39:50;;;;;;;9.70;8.20;;;;;;;21.82;62.93;99271.64;233350;1217;142071;-60
2022/06/10 10:45:15;;;;;;;11.10;9.30;;;;;;;21.81;63.16;99278.75;233470;1217;140095;-60
2022/06/10 10:50:39;;;;;;;10.30;8.90;;;;;;;21.90;63.40;99274.66;233365;1216;138992;-60
2022/06/10 10:55:50;;;;;;;10.30;9.10;;;;;;;22.08;63.30;99275.89;232319;1216;139320;-60
2022/06/10 11:00:58;;;;;;;11.40;8.80;;;;;;;22.19;63.21;99274.17;233514;1217;138694;-60
2022/06/10 11:06:05;;;;;;;244.70;175.40;;;;;;;22.30;63.00;99272.85;233664;1217;139965;-60
2022/06/10 11:11:24;;;;;;;15.10;12.50;;;;;;;22.39;62.60;99271.58;233635;1217;139343;-60
2022/06/10 11:16:44;;;;;;;11.00;9.80;;;;;;;22.42;62.43;99274.59;233555;1216;140072;-60
2022/06/10 11:22:07;;;;;;;10.50;9.50;;;;;;;22.44;62.40;99273.54;233575;1217;140584;-60
2022/06/10 11:27:25;;;;;;;10.90;9.60;;;;;;;22.52;62.31;99277.90;233436;1217;141037;-60
2022/06/10 11:32:36;;;;;;;9.30;8.40;;;;;;;22.58;62.28;99269.23;233558;1217;138829;-59
2022/06/10 11:37:40;;;;;;;11.00;9.20;;;;;;;22.65;61.99;99271.05;233445;1217;138947;-60
2022/06/10 11:43:04;;;;;;;12.00;9.80;;;;;;;22.66;61.48;99274.92;233379;1217;139597;-59
2022/06/10 11:48:22;;;;;;;9.60;8.70;;;;;;;22.62;61.50;99274.30;233534;1217;141243;-60
2022/06/10 11:53:56;;;;;;;21.20;17.10;;;;;;;22.54;61.51;99275.64;233434;1216;140123;-59
2022/06/10 12:04:34;;;;;;;10.40;8.10;;;;;;;22.57;61.54;99278.25;233602;1217;140238;-59
2022/06/10 12:09:42;;;;;;;18.80;12.20;;;;;;;22.60;61.53;99274.63;233689;1216;139992;-60
2022/06/10 12:14:51;;;;;;;13.10;9.00;;;;;;;22.65;61.60;99278.80;233539;1217;139679;-60
2022/06/10 12:20:04;;;;;;;9.60;8.30;;;;;;;22.66;61.65;99275.11;233592;1216;139906;-60
2022/06/10 12:25:40;;;;;;;12.10;10.80;;;;;;;22.72;61.32;99277.23;233478;1217;140591;-60
2022/06/10 12:30:53;;;;;;;17.90;13.40;;;;;;;22.84;61.25;99274.59;233535;1217;140285;-59
2022/06/10 12:35:57;;;;;;;18.70;16.70;;;;;;;22.98;61.09;99274.52;233375;1217;138812;-60
2022/06/10 12:41:14;;;;;;;20.00;16.70;;;;;;;23.07;60.83;99271.90;233815;1217;140218;-60
2022/06/10 12:46:33;;;;;;;16.80;14.20;;;;;;;23.16;60.40;99266.33;233619;1217;138525;-59
2022/06/10 12:51:43;;;;;;;17.30;15.40;;;;;;;23.33;60.24;99270.05;233266;1216;141537;-58
2022/06/10 12:56:46;;;;;;;17.90;15.80;;;;;;;23.29;59.60;99266.39;233522;1217;140164;-59
2022/06/10 13:01:50;;;;;;;18.20;16.20;;;;;;;23.21;59.37;99268.88;233484;1217;139811;-58
2022/06/10 13:06:56;;;;;;;19.10;16.40;;;;;;;23.11;59.30;99273.43;233610;1216;140360;-58
2022/06/10 13:12:08;;;;;;;18.20;14.60;;;;;;;22.99;59.31;99271.00;233660;1217;139979;-59
2022/06/10 13:17:17;;;;;;;15.20;12.40;;;;;;;22.88;59.40;99274.14;233719;1217;139265;-60
2022/06/10 13:22:20;;;;;;;12.90;11.40;;;;;;;22.79;59.32;99277.71;233709;1216;141616;-58
2022/06/10 13:27:44;;;;;;;12.60;10.90;;;;;;;22.69;59.57;99274.92;233689;1217;138931;-57
2022/06/10 13:33:09;;;;;;;10.70;9.60;;;;;;;22.67;59.69;99275.53;233405;1217;140698;-59
2022/06/10 13:38:12;;;;;;;14.90;11.70;;;;;;;22.69;59.48;99283.67;233486;1217;141483;-60
2022/06/10 13:43:29;;;;;;;13.50;12.20;;;;;;;22.62;59.55;99280.04;233661;1217;140443;-61
2022/06/10 13:48:33;;;;;;;15.20;12.70;;;;;;;22.57;59.58;99282.42;233434;1217;142371;-59
2022/06/10 13:53:42;;;;;;;15.90;14.20;;;;;;;22.60;59.57;99284.80;233483;1217;141456;-58
2022/06/10 13:58:52;;;;;;;16.20;14.40;;;;;;;22.52;59.41;99283.63;233675;1217;139534;-60
2022/06/10 14:04:04;;;;;;;15.10;13.60;;;;;;;22.41;59.51;99282.91;233666;1217;139799;-60
2022/06/10 14:09:20;;;;;;;31.10;27.60;;;;;;;22.36;59.59;99283.06;233071;1217;139644;-59
2022/06/10 14:14:23;;;;;;;26.30;20.50;;;;;;;22.36;59.89;99284.23;233559;1217;139816;-58
2022/06/10 14:19:28;;;;;;;20.60;17.70;;;;;;;22.38;60.04;99282.94;233464;1217;139494;-58
2022/06/10 14:24:32;;;;;;;14.70;13.20;;;;;;;22.42;59.91;99284.90;233535;1217;141870;-58
2022/06/10 14:29:42;;;;;;;15.70;13.00;;;;;;;22.42;59.86;99282.34;233524;1217;140276;-58
2022/06/10 14:34:47;;;;;;;15.50;13.90;;;;;;;22.47;59.92;99280.64;233638;1217;139801;-59
2022/06/10 14:40:16;;;;;;;14.90;13.30;;;;;;;22.52;60.10;99282.95;233122;1217;139547;-59
2022/06/10 14:45:28;;;;;;;16.50;13.30;;;;;;;22.54;59.85;99283.97;233577;1217;139295;-58
2022/06/10 14:50:37;;;;;;;17.20;13.70;;;;;;;22.51;60.05;99285.05;233489;1217;140344;-57
2022/06/10 14:55:44;;;;;;;15.60;12.40;;;;;;;22.56;60.12;99281.61;233393;1217;139095;-58
2022/06/10 15:00:52;;;;;;;16.00;12.10;;;;;;;22.60;60.24;99282.02;233447;1216;140536;-59
2022/06/10 15:06:17;;;;;;;58.50;52.20;;;;;;;22.72;60.44;99284.55;233509;1217;140363;-59
2022/06/10 15:11:21;;;;;;;18.60;15.80;;;;;;;22.92;60.36;99283.85;233436;1217;139940;-57
2022/06/10 15:16:24;;;;;;;14.30;12.90;;;;;;;23.02;60.23;99282.00;233523;1217;140974;-60
2022/06/10 15:21:35;;;;;;;10.10;9.20;;;;;;;23.14;59.99;99288.50;233501;1217;139321;-59
2022/06/10 15:26:48;;;;;;;7.20;4.90;;;;;;;23.20;59.76;99283.85;233523;1217;139766;-60
2022/06/10 15:31:52;;;;;;;8.60;5.60;;;;;;;23.19;59.50;99285.98;233498;1216;139470;-59
2022/06/10 15:42:16;;;;;;;5.60;4.20;;;;;;;23.15;58.95;99284.36;233431;1217;141297;-59
2022/06/10 15:47:20;;;;;;;5.60;4.30;;;;;;;23.09;58.94;99276.34;233550;1216;139575;-60
2022/06/10 15:52:36;;;;;;;5.00;4.50;;;;;;;23.12;58.85;99279.54;233508;1217;140109;-60
2022/06/10 15:57:49;;;;;;;12.00;4.80;;;;;;;23.16;58.78;99279.23;233406;1217;138884;-59
2022/06/10 16:02:53;;;;;;;11.00;4.70;;;;;;;23.19;58.69;99281.60;233415;1217;139772;-59
2022/06/10 16:08:01;;;;;;;5.90;4.10;;;;;;;23.17;58.65;99281.64;233555;1217;138570;-59
2022/06/10 16:13:06;;;;;;;7.70;4.40;;;;;;;23.19;58.65;99284.48;233457;1217;140490;-59
2022/06/10 16:18:23;;;;;;;7.10;4.30;;;;;;;23.19;58.51;99283.30;233555;1217;139279;-60
2022/06/10 16:23:30;;;;;;;4.70;4.00;;;;;;;23.19;58.38;99287.95;233516;1217;140085;-58
2022/06/10 16:28:44;;;;;;;37.30;28.20;;;;;;;23.20;58.25;99289.83;233515;1217;139718;-59
2022/06/10 16:33:50;;;;;;;11.20;8.60;;;;;;;23.20;58.14;99283.54;233402;1216;139995;-60
2022/06/10 16:38:53;;;;;;;7.60;6.10;;;;;;;23.17;58.15;99276.61;233546;1217;141771;-59
2022/06/10 16:43:59;;;;;;;6.30;5.50;;;;;;;23.12;58.06;99273.27;233554;1216;138808;-60
2022/06/10 16:49:04;;;;;;;10.50;5.00;;;;;;;23.08;58.07;99268.14;233464;1217;140796;-60
2022/06/10 16:54:07;;;;;;;9.10;4.00;;;;;;;23.08;58.07;99275.15;233441;1217;139517;-59
2022/06/10 16:59:15;;;;;;;5.50;4.70;;;;;;;23.08;58.10;99280.03;233549;1217;138947;-57
2022/06/10 17:04:18;;;;;;;6.20;4.50;;;;;;;23.05;57.86;99279.88;233745;1217;139693;-60
2022/06/10 17:09:21;;;;;;;316.80;263.10;;;;;;;23.01;57.74;99283.02;233511;1217;139048;-59
2022/06/10 17:14:26;;;;;;;11.60;10.30;;;;;;;23.04;57.78;99288.70;233127;1217;140181;-60
2022/06/10 17:19:29;;;;;;;;;;;;;;;23.04;57.70;99294.09;233520;1217;139967;-59
2022/06/10 17:24:32;;;;;;;7.00;6.30;;;;;;;23.01;57.78;99301.69;233544;1217;125600;-59
2022/06/10 17:29:39;;;;;;;10.40;5.20;;;;;;;23.02;57.73;99308.73;233318;1217;140480;-60
2022/06/10 17:34:42;;;;;;;7.40;5.50;;;;;;;23.05;57.73;99313.73;232756;1215;139988;-58
2022/06/10 17:39:45;;;;;;;7.50;5.60;;;;;;;23.07;57.66;99319.64;233528;1217;139636;-60
2022/06/10 17:44:50;;;;;;;6.20;5.10;;;;;;;23.07;57.69;99325.09;232923;1217;139011;-59
2022/06/10 17:49:56;;;;;;;7.10;4.70;;;;;;;23.06;57.64;99327.02;233295;1217;139841;-61
2022/06/10 17:54:59;;;;;;;5.10;4.60;;;;;;;23.02;57.63;99328.42;233515;1217;139533;-60
2022/06/10 18:00:25;;;;;;;6.00;4.70;;;;;;;23.00;57.71;99331.89;233622;1217;139310;-59
2022/06/10 18:05:33;;;;;;;5.20;4.70;;;;;;;22.97;57.67;99331.35;232887;1216;139727;-60
2022/06/10 18:10:37;;;;;;;5.50;4.20;;;;;;;22.91;57.64;99326.71;233715;1217;138737;-59
2022/06/10 18:15:43;;;;;;;6.80;5.00;;;;;;;22.89;57.72;99339.72;233464;1217;140344;-59
2022/06/10 18:20:46;;;;;;;;;;;;;;;22.86;57.66;99337.18;233448;1217;139410;-59
2022/06/10 18:25:51;;;;;;;5.60;4.80;;;;;;;22.82;57.72;99340.34;233563;1217;125581;-58
2022/06/10 18:31:00;;;;;;;5.90;4.30;;;;;;;22.79;57.84;99343.70;233630;1216;139520;-59
2022/06/10 18:36:03;;;;;;;7.20;4.70;;;;;;;22.83;57.87;99347.64;233593;1216;140515;-60
2022/06/10 18:41:06;;;;;;;68.20;50.20;;;;;;;22.86;57.77;99357.04;233620;1217;138250;-57
2022/06/10 18:46:12;;;;;;;9.50;5.70;;;;;;;22.87;57.71;99367.91;233573;1216;139167;-58
2022/06/10 18:51:21;;;;;;;6.40;5.00;;;;;;;22.79;57.58;99372.66;233620;1217;140257;-59
2022/06/10 18:56:27;;;;;;;8.00;4.90;;;;;;;22.70;57.56;99385.02;233536;1217;139071;-59
2022/06/10 19:01:34;;;;;;;6.40;5.00;;;;;;;22.62;57.62;99398.11;233521;1217;139915;-58
2022/06/10 19:06:37;;;;;;;11.90;5.20;;;;;;;22.51;57.65;99400.65;233493;1217;139468;-58
2022/06/10 19:11:42;;;;;;;5.90;5.10;;;;;;;22.37;57.75;99409.96;233503;1217;139414;-58
2022/06/10 19:16:47;;;;;;;;;;;;;;;22.24;57.89;99419.86;233643;1216;140271;-58
2022/06/10 19:24:25;;;;;;;50.10;38.30;;;;;;;22.13;58.53;99424.95;230296;1229;635972;-59
2022/06/10 19:29:28;;;;;;;8.40;6.80;;;;;;;22.10;58.65;99432.02;232706;1223;138943;-59
2022/06/10 19:34:39;;;;;;;8.20;5.10;;;;;;;22.03;58.46;99438.17;232889;1223;138376;-60
2022/06/10 19:39:43;;;;;;;7.20;4.90;;;;;;;21.96;58.59;99440.65;232599;1223;138652;-59
2022/06/10 19:44:46;;;;;;;6.50;5.00;;;;;;;21.89;58.67;99445.48;232768;1222;137759;-61
2022/06/10 19:50:30;;;;;;;7.30;5.30;;;;;;;21.82;58.64;99449.02;232810;1222;137752;-58
2022/06/10 19:55:41;;;;;;;7.20;5.40;;;;;;;21.74;58.63;99449.80;232505;1223;138000;-59
2022/06/10 20:00:44;;;;;;;7.50;5.50;;;;;;;21.66;58.82;99451.48;232755;1223;138911;-58
2022/06/10 20:05:48;;;;;;;15.10;13.20;;;;;;;21.61;58.88;99451.35;232998;1223;137605;-59
2022/06/10 20:10:54;;;;;;;6.80;4.70;;;;;;;21.64;59.59;99446.70;233077;1222;139005;-58
2022/06/10 20:16:01;;;;;;;8.00;5.40;;;;;;;21.63;59.33;99440.66;232897;1223;139280;-58
2022/06/10 20:21:08;;;;;;;14.10;5.50;;;;;;;21.57;59.27;99434.35;233027;1223;138043;-58
2022/06/10 20:26:19;;;;;;;6.90;5.10;;;;;;;21.49;59.15;99431.22;232647;1223;138343;-58
2022/06/10 20:31:29;;;;;;;174.20;147.60;;;;;;;21.43;59.35;99436.68;232787;1223;138008;-58
2022/06/10 20:36:32;;;;;;;12.10;8.30;;;;;;;21.40;59.40;99443.89;232976;1223;139737;-59
2022/06/10 20:41:35;;;;;;;8.30;5.80;;;;;;;21.29;59.38;99441.09;232978;1222;139587;-59
2022/06/10 20:46:44;;;;;;;8.30;5.00;;;;;;;21.20;59.48;99441.50;232535;1223;138149;-59
2022/06/10 20:51:51;;;;;;;6.60;4.80;;;;;;;21.11;59.69;99437.92;232364;1223;139902;-58
2022/06/10 20:56:54;;;;;;;5.40;4.80;;;;;;;21.11;59.76;99442.22;232554;1223;139605;-60
2022/06/10 21:01:58;;;;;;;6.60;4.80;;;;;;;21.11;59.94;99432.88;232584;1223;138903;-59
2022/06/10 21:12:24;;;;;;;5.40;4.80;;;;;;;21.17;60.03;99438.41;231852;1223;140208;-61
2022/06/10 21:17:35;;;;;;;7.20;4.40;;;;;;;21.13;60.09;99433.73;232503;1223;139224;-59
2022/06/10 21:22:38;;;;;;;7.80;4.30;;;;;;;21.08;60.17;99432.42;232604;1223;138953;-58
2022/06/10 21:27:42;;;;;;;7.60;5.10;;;;;;;20.99;60.16;99428.92;232976;1223;137836;-58
2022/06/10 21:32:45;;;;;;;7.70;5.00;;;;;;;20.95;60.26;99426.08;233292;1220;139522;-58
2022/06/10 21:37:49;;;;;;;7.10;4.40;;;;;;;20.93;60.33;99420.94;233354;1220;138359;-59
2022/06/10 21:48:26;;;;;;;6.10;4.70;;;;;;;20.97;60.52;99412.77;233324;1220;139239;-58
2022/06/10 21:53:31;;;;;;;7.20;5.00;;;;;;;20.95;60.48;99415.31;233318;1220;138112;-60
2022/06/10 21:58:36;;;;;;;8.10;5.00;;;;;;;20.92;60.47;99422.93;233537;1219;137780;-59
2022/06/10 22:03:46;;;;;;;6.80;5.70;;;;;;;20.92;60.45;99422.46;233086;1220;137686;-59
2022/06/10 22:08:54;;;;;;;8.00;5.20;;;;;;;20.88;60.47;99423.55;233197;1219;138110;-59
2022/06/10 22:13:58;;;;;;;7.80;6.00;;;;;;;20.82;60.59;99428.31;233457;1220;138974;-59
2022/06/10 22:19:16;;;;;;;10.10;5.30;;;;;;;20.74;60.53;99431.58;233346;1220;138567;-58
2022/06/10 22:24:24;;;;;;;6.90;4.70;;;;;;;20.69;60.65;99444.90;233301;1220;138547;-59
2022/06/10 22:29:28;;;;;;;6.60;5.10;;;;;;;20.65;60.73;99446.06;233351;1220;140251;-59
2022/06/10 22:34:38;;;;;;;10.20;5.00;;;;;;;20.61;60.77;99448.08;233481;1219;138656;-59
2022/06/10 22:39:48;;;;;;;9.80;5.80;;;;;;;20.58;60.98;99460.41;233418;1219;138552;-58
2022/06/10 22:44:55;;;;;;;7.50;5.90;;;;;;;20.49;61.02;99469.54;233294;1219;138882;-59
2022/06/10 22:50:00;;;;;;;10.80;6.00;;;;;;;20.39;61.04;99469.73;233509;1220;139791;-58
2022/06/10 22:55:08;;;;;;;9.70;5.80;;;;;;;20.28;61.08;99472.61;233332;1219;138499;-59
2022/06/10 23:00:35;;;;;;;6.30;5.60;;;;;;;20.20;61.31;99478.98;233559;1219;138519;-57
2022/06/10 23:11:02;;;;;;;8.60;5.40;;;;;;;20.09;61.67;99487.02;233503;1220;139044;-59
2022/06/10 23:16:10;;;;;;;7.40;5.80;;;;;;;20.07;61.78;99491.95;233381;1220;138379;-60
2022/06/10 23:21:19;;;;;;;8.90;6.30;;;;;;;20.03;62.03;99501.14;233425;1219;138301;-59
2022/06/10 23:26:26;;;;;;;10.00;6.00;;;;;;;19.94;62.04;99501.94;233407;1219;138303;-58
2022/06/10 23:31:36;;;;;;;7.20;6.10;;;;;;;19.86;62.19;99495.31;233418;1220;138641;-61
2022/06/10 23:36:42;;;;;;;6.30;5.60;;;;;;;19.76;62.20;99493.58;233515;1219;138879;-59
2022/06/10 23:42:02;;;;;;;6.90;5.80;;;;;;;19.72;62.50;99490.69;233526;1219;139312;-59
2022/06/10 23:52:32;;;;;;;7.90;6.10;;;;;;;19.71;62.79;99490.46;233387;1219;138943;-59
2022/06/10 23:57:35;;;;;;;8.30;6.00;;;;;;;19.68;62.82;99491.61;233382;1220;139758;-60
